createdAt,value
2023-05-22T00:01:49.266Z,44.00
2023-05-22T00:04:34.475Z,43.94
2023-05-22T00:07:19.935Z,43.84
2023-05-22T00:10:05.140Z,44.00
2023-05-22T00:12:50.717Z,44.12
2023-05-22T00:15:36.200Z,44.09
2023-05-22T00:18:21.501Z,44.11
2023-05-22T00:21:06.896Z,44.03
2023-05-22T00:23:52.229Z,44.18
2023-05-22T00:26:37.694Z,44.35
2023-05-22T00:29:22.901Z,44.06
2023-05-22T00:32:08.482Z,43.93
2023-05-22T00:34:53.779Z,43.93
2023-05-22T00:37:39.253Z,43.82
2023-05-22T00:40:24.516Z,43.83
2023-05-22T00:43:09.859Z,44.35
2023-05-22T00:45:55.209Z,44.46
2023-05-22T00:48:40.470Z,44.03
2023-05-22T00:51:25.922Z,44.17
2023-05-22T00:54:11.211Z,44.25
2023-05-22T00:56:56.359Z,44.43
2023-05-22T00:59:42.075Z,44.40
2023-05-22T01:02:27.272Z,44.21
2023-05-22T01:05:12.752Z,44.51
2023-05-22T01:07:58.064Z,44.17
2023-05-22T01:10:43.575Z,44.07
2023-05-22T01:13:29.047Z,44.43
2023-05-22T01:16:14.361Z,44.43
2023-05-22T01:18:59.768Z,44.12
2023-05-22T01:21:44.809Z,44.34
2023-05-22T01:24:30.095Z,44.02
2023-05-22T01:27:15.636Z,44.37
2023-05-22T01:30:01.053Z,44.30
2023-05-22T01:32:46.702Z,44.50
2023-05-22T01:35:31.841Z,44.60
2023-05-22T01:38:16.947Z,43.99
2023-05-22T01:41:02.341Z,44.35
2023-05-22T01:43:47.758Z,44.20
2023-05-22T01:46:32.906Z,44.49
2023-05-22T01:49:18.369Z,44.32
2023-05-22T01:52:03.898Z,44.13
2023-05-22T01:54:49.136Z,44.33
2023-05-22T01:57:34.569Z,44.27
2023-05-22T02:00:19.886Z,44.35
2023-05-22T02:03:05.379Z,44.58
2023-05-22T02:05:50.788Z,44.66
2023-05-22T02:08:36.203Z,44.49
2023-05-22T02:11:21.546Z,44.55
2023-05-22T02:14:06.881Z,44.22
2023-05-22T02:16:52.216Z,44.43
2023-05-22T02:19:37.613Z,44.06
2023-05-22T02:22:22.835Z,44.15
2023-05-22T02:25:08.258Z,44.36
2023-05-22T02:27:53.636Z,44.71
2023-05-22T02:30:39.157Z,44.28
2023-05-22T02:33:24.545Z,44.28
2023-05-22T02:36:09.839Z,44.24
2023-05-22T02:38:55.355Z,44.05
2023-05-22T02:41:40.753Z,44.46
2023-05-22T02:44:26.152Z,44.14
2023-05-22T02:47:11.576Z,44.41
2023-05-22T02:49:56.976Z,43.90
2023-05-22T02:52:42.450Z,43.75
2023-05-22T02:55:27.722Z,44.26
2023-05-22T02:58:13.169Z,44.23
2023-05-22T03:00:58.536Z,44.13
2023-05-22T03:03:44.041Z,44.33
2023-05-22T03:06:29.268Z,44.10
2023-05-22T03:09:14.388Z,44.16
2023-05-22T03:11:59.715Z,44.01
2023-05-22T03:14:44.964Z,43.92
2023-05-22T03:17:30.424Z,44.28
2023-05-22T03:20:15.909Z,44.15
2023-05-22T03:23:01.316Z,44.12
2023-05-22T03:25:46.691Z,44.11
2023-05-22T03:28:32.070Z,44.11
2023-05-22T03:31:17.531Z,44.05
2023-05-22T03:34:02.943Z,43.76
2023-05-22T03:36:48.170Z,43.70
2023-05-22T03:39:33.601Z,44.07
2023-05-22T03:42:18.960Z,43.63
2023-05-22T03:45:04.451Z,43.77
2023-05-22T03:47:49.778Z,43.70
2023-05-22T03:50:35.106Z,43.89
2023-05-22T03:53:20.613Z,43.93
2023-05-22T03:56:05.928Z,43.78
2023-05-22T03:58:51.435Z,43.67
2023-05-22T04:01:36.734Z,43.75
2023-05-22T04:04:22.180Z,43.74
2023-05-22T04:07:07.335Z,43.53
2023-05-22T04:09:52.520Z,43.36
2023-05-22T04:12:37.838Z,43.37
2023-05-22T04:15:23.172Z,43.52
2023-05-22T04:18:08.596Z,43.83
2023-05-22T04:20:53.967Z,43.71
2023-05-22T04:23:39.324Z,43.51
2023-05-22T04:26:24.748Z,43.74
2023-05-22T04:29:10.135Z,43.54
2023-05-22T04:31:55.600Z,43.70
2023-05-22T04:34:41.062Z,43.46
2023-05-22T04:37:26.576Z,43.88
2023-05-22T04:40:11.689Z,44.12
2023-05-22T04:42:56.981Z,43.58
2023-05-22T04:45:42.333Z,43.81
2023-05-22T04:48:27.506Z,43.78
2023-05-22T04:51:12.890Z,44.22
2023-05-22T04:53:58.246Z,44.67
2023-05-22T04:56:43.732Z,44.74
2023-05-22T04:59:29.171Z,45.20
2023-05-22T05:02:14.371Z,45.21
2023-05-22T05:04:59.949Z,45.11
2023-05-22T05:07:46.707Z,45.39
2023-05-22T05:10:33.028Z,45.12
2023-05-22T05:13:18.607Z,45.50
2023-05-22T05:16:03.902Z,45.85
2023-05-22T05:18:49.235Z,45.55
2023-05-22T05:21:34.298Z,45.44
2023-05-22T05:24:19.648Z,45.59
2023-05-22T05:27:05.054Z,45.00
2023-05-22T05:29:50.205Z,45.17
2023-05-22T05:32:35.600Z,45.13
2023-05-22T05:35:20.868Z,45.07
2023-05-22T05:38:06.199Z,45.09
2023-05-22T05:40:51.680Z,45.47
2023-05-22T05:43:37.066Z,45.19
2023-05-22T05:46:22.603Z,45.64
2023-05-22T05:49:07.704Z,45.81
2023-05-22T05:51:53.196Z,46.53
2023-05-22T05:54:38.363Z,46.73
2023-05-22T05:57:23.670Z,47.26
2023-05-22T06:00:09.185Z,48.53
2023-05-22T06:02:54.621Z,49.21
2023-05-22T06:05:40.288Z,49.11
2023-05-22T06:08:25.617Z,47.64
2023-05-22T06:11:10.931Z,49.04
2023-05-22T06:13:56.548Z,49.19
2023-05-22T06:16:41.795Z,49.14
2023-05-22T06:19:27.283Z,48.69
2023-05-22T06:22:12.598Z,48.37
2023-05-22T06:24:57.994Z,49.33
2023-05-22T06:27:43.310Z,48.76
2023-05-22T06:30:39.622Z,48.17
2023-05-22T06:33:25.581Z,47.98
2023-05-22T06:36:10.985Z,48.06
2023-05-22T06:38:56.402Z,48.44
2023-05-22T06:41:41.658Z,49.07
2023-05-22T06:44:27.300Z,48.53
2023-05-22T06:47:12.555Z,48.82
2023-05-22T06:49:57.998Z,49.07
2023-05-22T06:52:43.325Z,48.70
2023-05-22T06:55:28.565Z,48.14
2023-05-22T06:58:14.044Z,47.99
2023-05-22T07:00:59.398Z,47.78
2023-05-22T07:03:44.963Z,48.42
2023-05-22T07:06:30.261Z,48.36
2023-05-22T07:09:15.631Z,49.55
2023-05-22T07:12:01.024Z,49.54
2023-05-22T07:14:46.401Z,49.72
2023-05-22T07:17:31.962Z,49.78
2023-05-22T07:20:17.093Z,49.65
2023-05-22T07:23:02.698Z,50.44
2023-05-22T07:25:48.035Z,50.93
2023-05-22T07:28:33.389Z,51.10
2023-05-22T07:31:18.938Z,51.28
2023-05-22T07:34:04.229Z,51.53
2023-05-22T07:36:49.644Z,51.43
2023-05-22T07:39:34.895Z,51.95
2023-05-22T07:42:20.204Z,51.23
2023-05-22T07:45:05.612Z,51.16
2023-05-22T07:47:52.244Z,51.03
2023-05-22T07:50:39.587Z,51.16
2023-05-22T07:53:25.069Z,51.24
2023-05-22T07:56:10.416Z,51.31
2023-05-22T07:58:55.969Z,50.98
2023-05-22T08:01:41.104Z,51.26
2023-05-22T08:04:26.478Z,51.12
2023-05-22T08:07:11.744Z,50.59
2023-05-22T08:09:57.058Z,50.42
2023-05-22T08:12:42.309Z,50.56
2023-05-22T08:15:27.835Z,50.30
2023-05-22T08:18:13.413Z,50.08
2023-05-22T08:20:58.769Z,50.40
2023-05-22T08:23:44.031Z,49.86
2023-05-22T08:26:30.117Z,49.73
2023-05-22T08:29:17.388Z,49.83
2023-05-22T08:32:02.747Z,49.60
2023-05-22T08:34:48.179Z,49.39
2023-05-22T08:37:33.468Z,49.53
2023-05-22T08:40:18.856Z,49.00
2023-05-22T08:43:04.161Z,49.01
2023-05-22T08:45:49.627Z,49.18
2023-05-22T08:48:34.915Z,48.70
2023-05-22T08:51:20.247Z,48.36
2023-05-22T08:54:05.564Z,47.38
2023-05-22T08:56:56.921Z,47.23
2023-05-22T08:59:42.372Z,46.63
2023-05-22T09:02:27.799Z,46.45
2023-05-22T09:05:13.201Z,46.63
2023-05-22T09:08:08.292Z,46.86
2023-05-22T09:11:01.992Z,47.59
2023-05-22T09:13:47.126Z,47.86
2023-05-22T09:16:32.662Z,47.85
2023-05-22T09:19:17.917Z,48.04
2023-05-22T09:22:03.302Z,47.67
2023-05-22T09:24:48.571Z,47.82
2023-05-22T09:27:33.944Z,47.54
2023-05-22T09:30:19.287Z,47.81
2023-05-22T09:33:04.538Z,47.66
2023-05-22T09:35:49.968Z,47.47
2023-05-22T09:38:35.246Z,47.27
2023-05-22T09:41:20.595Z,47.39
2023-05-22T09:44:05.875Z,47.35
2023-05-22T09:46:51.482Z,47.63
2023-05-22T09:49:36.847Z,47.43
2023-05-22T09:52:22.090Z,47.52
2023-05-22T09:55:07.351Z,47.55
2023-05-22T09:57:52.367Z,47.72
2023-05-22T10:00:38.099Z,47.60
2023-05-22T10:03:23.335Z,47.77
2023-05-22T10:06:08.809Z,47.64
2023-05-22T10:08:54.259Z,47.17
2023-05-22T10:11:39.452Z,47.50
2023-05-22T10:14:24.833Z,47.58
2023-05-22T10:17:10.281Z,47.40
2023-05-22T10:19:55.641Z,47.15
2023-05-22T10:22:40.906Z,47.05
2023-05-22T10:25:26.197Z,47.11
2023-05-22T10:28:11.306Z,47.30
2023-05-22T10:30:56.663Z,46.73
2023-05-22T10:33:42.083Z,46.04
2023-05-22T10:36:27.500Z,45.80
2023-05-22T10:39:12.731Z,45.82
2023-05-22T10:41:58.170Z,45.57
2023-05-22T10:44:43.490Z,45.91
2023-05-22T10:47:28.949Z,45.40
2023-05-22T10:50:14.434Z,45.71
2023-05-22T10:52:59.860Z,45.33
2023-05-22T10:55:45.184Z,45.38
2023-05-22T10:58:30.429Z,45.57
2023-05-22T11:01:15.843Z,45.18
2023-05-22T11:04:01.382Z,45.38
2023-05-22T11:06:46.793Z,45.34
2023-05-22T11:09:32.384Z,45.63
2023-05-22T11:12:17.783Z,45.72
2023-05-22T11:15:03.452Z,45.13
2023-05-22T11:17:48.871Z,45.06
2023-05-22T11:20:34.410Z,45.08
2023-05-22T11:23:19.557Z,45.12
2023-05-22T11:26:04.813Z,45.19
2023-05-22T11:28:50.283Z,45.23
2023-05-22T11:31:35.654Z,45.32
2023-05-22T11:34:20.983Z,45.16
2023-05-22T11:37:06.318Z,45.19
2023-05-22T11:39:51.635Z,44.74
2023-05-22T11:42:37.453Z,45.09
2023-05-22T11:45:22.677Z,45.03
2023-05-22T11:48:08.222Z,44.53
2023-05-22T11:50:53.355Z,44.52
2023-05-22T11:53:38.768Z,44.48
2023-05-22T11:56:24.179Z,44.59
2023-05-22T11:59:09.479Z,44.15
2023-05-22T12:01:54.882Z,44.27
2023-05-22T12:04:40.196Z,44.48
2023-05-22T12:07:25.405Z,44.24
2023-05-22T12:10:10.866Z,44.52
2023-05-22T12:12:56.266Z,44.09
2023-05-22T12:15:42.027Z,44.11
2023-05-22T12:18:26.985Z,44.18
2023-05-22T12:21:12.376Z,44.26
2023-05-22T12:23:57.854Z,44.12
2023-05-22T12:26:43.188Z,44.32
2023-05-22T12:29:28.670Z,44.26
2023-05-22T12:32:14.082Z,44.14
2023-05-22T12:34:59.556Z,43.86
2023-05-22T12:37:44.780Z,44.35
2023-05-22T12:40:30.309Z,44.28
2023-05-22T12:43:15.593Z,44.15
2023-05-22T12:46:02.514Z,43.83
2023-05-22T12:48:48.555Z,43.74
2023-05-22T12:51:33.897Z,43.97
2023-05-22T12:54:19.155Z,43.59
2023-05-22T12:57:04.595Z,43.97
2023-05-22T12:59:49.742Z,43.84
2023-05-22T13:02:35.040Z,44.13
2023-05-22T13:05:20.596Z,44.25
2023-05-22T13:08:05.746Z,44.53
2023-05-22T13:10:51.264Z,44.13
2023-05-22T13:13:36.586Z,44.69
2023-05-22T13:16:22.024Z,44.82
2023-05-22T13:19:07.118Z,44.50
2023-05-22T13:21:52.653Z,44.50
2023-05-22T13:24:38.118Z,44.60
2023-05-22T13:27:23.378Z,44.46
2023-05-22T13:30:08.916Z,44.21
2023-05-22T13:32:54.160Z,44.43
2023-05-22T13:35:39.801Z,44.58
2023-05-22T13:38:25.323Z,44.22
2023-05-22T13:41:10.819Z,44.12
2023-05-22T13:43:56.191Z,43.55
2023-05-22T13:46:41.474Z,43.69
2023-05-22T13:49:27.151Z,44.09
2023-05-22T13:52:12.382Z,43.93
2023-05-22T13:54:57.897Z,44.18
2023-05-22T13:57:43.248Z,43.92
2023-05-22T14:00:28.630Z,43.76
2023-05-22T14:03:14.165Z,43.78
2023-05-22T14:05:59.303Z,44.21
2023-05-22T14:08:44.961Z,44.13
2023-05-22T14:11:30.438Z,43.65
2023-05-22T14:14:15.721Z,43.98
2023-05-22T14:17:01.273Z,44.16
2023-05-22T14:19:46.473Z,44.15
2023-05-22T14:22:36.332Z,44.67
2023-05-22T14:25:30.445Z,44.44
2023-05-22T14:28:15.935Z,44.20
2023-05-22T14:31:01.284Z,44.20
2023-05-22T14:33:46.648Z,44.19
2023-05-22T14:36:32.076Z,44.30
2023-05-22T14:39:17.438Z,44.15
2023-05-22T14:42:02.874Z,43.68
2023-05-22T14:44:48.250Z,44.23
2023-05-22T14:47:33.607Z,43.65
2023-05-22T14:50:22.853Z,43.71
2023-05-22T14:53:08.474Z,43.77
2023-05-22T14:55:53.772Z,44.66
2023-05-22T14:58:39.240Z,44.31
2023-05-22T15:01:24.630Z,43.79
2023-05-22T15:04:10.113Z,43.50
2023-05-22T15:06:55.395Z,43.47
2023-05-22T15:09:40.901Z,43.76
2023-05-22T15:12:26.225Z,43.55
2023-05-22T15:15:11.546Z,43.73
2023-05-22T15:17:56.874Z,44.04
2023-05-22T15:20:42.148Z,43.89
2023-05-22T15:23:27.628Z,43.97
2023-05-22T15:26:12.621Z,44.29
2023-05-22T15:28:57.929Z,44.14
2023-05-22T15:31:43.473Z,43.92
2023-05-22T15:34:28.797Z,43.62
2023-05-22T15:37:14.194Z,43.69
2023-05-22T15:39:59.521Z,43.57
2023-05-22T15:42:45.061Z,43.59
2023-05-22T15:45:30.716Z,43.87
2023-05-22T15:48:16.205Z,43.64
2023-05-22T15:51:01.460Z,43.25
2023-05-22T15:53:46.973Z,43.84
2023-05-22T15:56:32.558Z,43.96
2023-05-22T15:59:18.896Z,44.05
2023-05-22T16:02:04.195Z,44.35
2023-05-22T16:04:49.642Z,44.35
2023-05-22T16:07:35.114Z,44.39
2023-05-22T16:10:20.625Z,43.82
2023-05-22T16:13:05.992Z,43.75
2023-05-22T16:15:51.111Z,43.73
2023-05-22T16:18:36.136Z,43.78
2023-05-22T16:21:21.439Z,42.47
2023-05-22T16:24:06.815Z,43.38
2023-05-22T16:26:52.195Z,42.92
2023-05-22T16:29:37.662Z,42.22
2023-05-22T16:32:23.177Z,42.28
2023-05-22T16:35:08.588Z,42.92
2023-05-22T16:37:54.073Z,42.35
2023-05-22T16:40:39.332Z,43.16
2023-05-22T16:43:24.767Z,43.22
2023-05-22T16:46:10.100Z,43.56
2023-05-22T16:48:55.498Z,43.44
2023-05-22T16:51:40.900Z,43.81
2023-05-22T16:54:26.123Z,43.76
2023-05-22T16:57:11.677Z,43.36
2023-05-22T16:59:57.906Z,43.52
2023-05-22T17:02:43.741Z,43.70
2023-05-22T17:05:29.030Z,43.88
2023-05-22T17:08:14.368Z,43.85
2023-05-22T17:10:59.852Z,43.90
2023-05-22T17:13:45.077Z,43.30
2023-05-22T17:16:30.295Z,43.37
2023-05-22T17:19:15.482Z,43.53
2023-05-22T17:22:00.837Z,43.09
2023-05-22T17:24:46.318Z,43.33
2023-05-22T17:27:36.012Z,43.30
2023-05-22T17:30:21.360Z,43.72
2023-05-22T17:33:06.791Z,43.32
2023-05-22T17:35:51.955Z,43.15
2023-05-22T17:38:37.677Z,43.26
2023-05-22T17:41:22.780Z,42.98
2023-05-22T17:44:08.087Z,43.02
2023-05-22T17:46:53.416Z,43.15
2023-05-22T17:49:38.710Z,43.36
2023-05-22T17:52:24.211Z,43.29
2023-05-22T17:55:09.642Z,43.55
2023-05-22T17:57:54.989Z,43.71
2023-05-22T18:00:40.788Z,43.67
2023-05-22T18:03:26.471Z,44.36
2023-05-22T18:06:12.031Z,44.53
2023-05-22T18:08:57.175Z,44.81
2023-05-22T18:11:42.570Z,44.48
2023-05-22T18:14:27.969Z,44.42
2023-05-22T18:17:13.317Z,44.53
2023-05-22T18:19:58.832Z,44.31
2023-05-22T18:22:44.087Z,44.27
2023-05-22T18:25:29.341Z,44.20
2023-05-22T18:28:14.506Z,43.96
2023-05-22T18:30:59.764Z,43.72
2023-05-22T18:33:45.174Z,43.78
2023-05-22T18:36:30.276Z,43.46
2023-05-22T18:39:15.320Z,43.69
2023-05-22T18:42:00.722Z,43.91
2023-05-22T18:44:50.679Z,43.75
2023-05-22T18:47:36.315Z,43.53
2023-05-22T18:50:23.403Z,44.20
2023-05-22T18:53:08.744Z,43.91
2023-05-22T18:55:54.441Z,43.81
2023-05-22T18:58:39.702Z,43.97
2023-05-22T19:01:25.276Z,43.83
2023-05-22T19:04:13.558Z,44.12
2023-05-22T19:06:58.688Z,43.94
2023-05-22T19:09:43.926Z,44.45
2023-05-22T19:12:29.202Z,44.08
2023-05-22T19:15:14.703Z,44.03
2023-05-22T19:18:00.222Z,44.17
2023-05-22T19:20:45.488Z,43.70
2023-05-22T19:23:30.953Z,43.87
2023-05-22T19:26:16.350Z,44.25
2023-05-22T19:29:01.850Z,44.38
2023-05-22T19:31:47.156Z,44.24
2023-05-22T19:34:32.652Z,44.10
2023-05-22T19:37:18.053Z,44.03
2023-05-22T19:40:03.268Z,44.13
2023-05-22T19:42:48.574Z,44.00
2023-05-22T19:45:33.862Z,43.91
2023-05-22T19:48:19.236Z,44.06
2023-05-22T19:51:04.573Z,44.48
2023-05-22T19:53:49.824Z,44.04
2023-05-22T19:56:35.340Z,44.08
2023-05-22T19:59:20.612Z,44.78
2023-05-22T20:02:06.065Z,44.81
2023-05-22T20:04:51.534Z,44.60
2023-05-22T20:07:36.819Z,45.20
2023-05-22T20:10:22.241Z,46.21
2023-05-22T20:13:07.576Z,46.44
2023-05-22T20:15:52.980Z,45.59
2023-05-22T20:18:38.318Z,46.17
2023-05-22T20:21:23.774Z,45.98
2023-05-22T20:24:10.299Z,45.68
2023-05-22T20:26:55.717Z,46.04
2023-05-22T20:29:41.232Z,45.70
2023-05-22T20:32:26.618Z,45.67
2023-05-22T20:35:11.997Z,45.69
2023-05-22T20:37:57.426Z,45.08
2023-05-22T20:40:42.681Z,46.09
2023-05-22T20:43:28.144Z,46.66
2023-05-22T20:46:13.634Z,47.26
2023-05-22T20:48:58.862Z,48.08
2023-05-22T20:51:44.160Z,47.77
2023-05-22T20:54:29.605Z,48.21
2023-05-22T20:57:15.082Z,48.84
2023-05-22T21:00:00.387Z,48.87
2023-05-22T21:02:45.883Z,49.44
2023-05-22T21:05:31.063Z,49.03
2023-05-22T21:08:16.583Z,49.27
2023-05-22T21:11:02.043Z,49.52
2023-05-22T21:13:47.286Z,49.08
2023-05-22T21:16:36.355Z,48.71
2023-05-22T21:19:23.946Z,48.89
2023-05-22T21:22:09.055Z,48.74
2023-05-22T21:24:54.695Z,48.40
2023-05-22T21:27:41.568Z,48.75
2023-05-22T21:30:26.551Z,48.44
2023-05-22T21:33:11.945Z,48.62
2023-05-22T21:35:57.174Z,48.24
2023-05-22T21:38:42.494Z,47.90
2023-05-22T21:41:27.675Z,48.02
2023-05-22T21:44:13.116Z,47.92
2023-05-22T21:46:58.611Z,48.27
2023-05-22T21:49:44.006Z,48.20
2023-05-22T21:52:29.504Z,48.12
2023-05-22T21:55:14.551Z,48.01
2023-05-22T21:57:59.981Z,47.96
2023-05-22T22:00:45.595Z,47.84
2023-05-22T22:03:31.100Z,48.22
2023-05-22T22:06:16.385Z,48.37
2023-05-22T22:09:01.537Z,48.67
2023-05-22T22:11:47.103Z,48.34
2023-05-22T22:14:32.433Z,48.25
2023-05-22T22:17:17.906Z,48.56
2023-05-22T22:20:03.456Z,48.52
2023-05-22T22:22:48.689Z,48.82
2023-05-22T22:25:34.219Z,48.68
2023-05-22T22:28:19.444Z,48.95
2023-05-22T22:31:04.904Z,48.89
2023-05-22T22:33:50.293Z,49.22
2023-05-22T22:36:35.577Z,48.70
2023-05-22T22:39:20.990Z,48.92
2023-05-22T22:42:06.299Z,49.22
2023-05-22T22:44:51.835Z,49.47
2023-05-22T22:47:37.349Z,49.24
2023-05-22T22:50:22.656Z,49.38
2023-05-22T22:53:08.230Z,48.86
2023-05-22T22:55:53.833Z,49.40
2023-05-22T22:58:39.154Z,48.95
2023-05-22T23:01:24.481Z,48.99
2023-05-22T23:04:09.755Z,49.04
2023-05-22T23:06:54.970Z,49.39
2023-05-22T23:09:40.253Z,49.27
2023-05-22T23:12:25.775Z,48.77
2023-05-22T23:15:11.213Z,48.94
2023-05-22T23:17:56.645Z,49.28
2023-05-22T23:20:42.052Z,48.88
2023-05-22T23:23:27.506Z,48.79
2023-05-22T23:26:13.015Z,48.87
2023-05-22T23:28:58.312Z,48.77
2023-05-22T23:31:43.642Z,48.74
2023-05-22T23:34:28.979Z,49.07
2023-05-22T23:37:14.302Z,48.81
2023-05-22T23:39:59.836Z,48.66
2023-05-22T23:42:44.841Z,48.60
2023-05-22T23:45:30.450Z,48.70
2023-05-22T23:48:15.853Z,48.89
2023-05-22T23:51:01.229Z,48.70
2023-05-22T23:53:46.529Z,48.84
2023-05-22T23:56:31.834Z,48.51
2023-05-22T23:59:17.265Z,48.94
